Weather at Grave di Papadopoli Jonathan Field

Public forecast

Using degrees Celsius for public forecast. Weather courtesy of forecast.io.

Closest aviation weather report (METAR) to Grave di Papadopoli Jonathan Field

Closest report is Treviso Antonio Canova Airport, 9.6 nm (17.8 km) SSW.

2024/07/24 20:20 (retrieved 25 minutes ago)

LIPH 242020Z 04003KT CAVOK 26/18 Q1012

Closest aviation forecast (TAF) to Grave di Papadopoli Jonathan Field

Closest forecast is Treviso Antonio Canova Airport, 9.6 nm (17.8 km) SSW.

2024/07/24 18:25 (retrieved 2 hours ago)

TAF LIPH 241700Z 2418/2518 01010KT 9999 SCT030 PROB40 TEMPO 2418/2420 TSRA BECMG 2420/2422 VRB05KT